createdAt,value
2022-08-03T00:00:51.663Z,6869
2022-08-03T00:02:51.939Z,6918
2022-08-03T00:03:51.656Z,5435
2022-08-03T00:04:51.661Z,6869
2022-08-03T00:06:04.259Z,5394
2022-08-03T00:07:51.868Z,5353
2022-08-03T00:08:51.687Z,6771
2022-08-03T00:09:51.656Z,5368
2022-08-03T00:10:51.704Z,6745
2022-08-03T00:12:51.838Z,5307
2022-08-03T00:13:51.684Z,5998
2022-08-03T00:14:51.711Z,6641
2022-08-03T00:15:51.729Z,5262
2022-08-03T00:17:53.141Z,5262
2022-08-03T00:18:51.687Z,6543
2022-08-03T00:19:51.664Z,5307
2022-08-03T00:20:51.759Z,6504
2022-08-03T00:22:51.839Z,6504
2022-08-03T00:23:52.819Z,5116
2022-08-03T00:24:51.677Z,5222
2022-08-03T00:25:51.661Z,6449
2022-08-03T00:27:51.886Z,4854
2022-08-03T00:28:51.729Z,4874
2022-08-03T00:29:57.709Z,6380
2022-08-03T00:30:51.749Z,6380
2022-08-03T00:32:51.888Z,5157
2022-08-03T00:33:57.824Z,5856
2022-08-03T00:34:58.018Z,6479
2022-08-03T00:35:51.714Z,5074
2022-08-03T00:37:51.864Z,6399
2022-08-03T00:38:51.672Z,6597
2022-08-03T00:39:51.733Z,6641
2022-08-03T00:40:51.680Z,5317
2022-08-03T00:42:51.869Z,6810
2022-08-03T00:43:51.703Z,5317
2022-08-03T00:44:51.673Z,4604
2022-08-03T00:45:51.682Z,5338
2022-08-03T00:47:51.883Z,5338
2022-08-03T00:48:51.800Z,6195
2022-08-03T00:49:51.738Z,5016
2022-08-03T00:50:52.138Z,5338
2022-08-03T00:52:51.869Z,6380
2022-08-03T00:53:51.748Z,5157
2022-08-03T00:54:51.681Z,6543
2022-08-03T00:55:51.682Z,5157
2022-08-03T00:57:51.870Z,6380
2022-08-03T00:58:51.743Z,6790
2022-08-03T00:59:51.683Z,5425
2022-08-03T01:00:51.708Z,6790
2022-08-03T01:02:51.864Z,6492
2022-08-03T01:03:51.711Z,6543
2022-08-03T01:04:51.750Z,6297
2022-08-03T01:05:51.718Z,6479
2022-08-03T01:07:51.891Z,6543
2022-08-03T01:08:51.719Z,6597
2022-08-03T01:09:51.709Z,5262
2022-08-03T01:10:51.721Z,6504
2022-08-03T01:12:51.897Z,6543
2022-08-03T01:13:59.445Z,5262
2022-08-03T01:14:51.761Z,6693
2022-08-03T01:15:51.693Z,4738
2022-08-03T01:17:51.892Z,6654
2022-08-03T01:18:51.710Z,5262
2022-08-03T01:19:51.717Z,6654
2022-08-03T01:20:51.718Z,5242
2022-08-03T01:22:51.872Z,6654
2022-08-03T01:23:51.766Z,6479
2022-08-03T01:24:51.739Z,5141
2022-08-03T01:25:54.373Z,5074
2022-08-03T01:27:51.874Z,5016
2022-08-03T01:28:51.721Z,5026
2022-08-03T01:29:51.699Z,5106
2022-08-03T01:30:51.693Z,5572
2022-08-03T01:33:00.419Z,5054
2022-08-03T01:33:51.696Z,6504
2022-08-03T01:34:51.767Z,6147
2022-08-03T01:35:51.729Z,6417
2022-08-03T01:37:51.890Z,5147
2022-08-03T01:38:51.712Z,5147
2022-08-03T01:39:51.700Z,6504
2022-08-03T01:40:51.724Z,6417
2022-08-03T01:42:51.879Z,6368
2022-08-03T01:43:55.543Z,5106
2022-08-03T01:44:51.762Z,6368
2022-08-03T01:45:51.770Z,5630
2022-08-03T01:47:51.937Z,4983
2022-08-03T01:48:51.730Z,5116
2022-08-03T01:49:51.768Z,5026
2022-08-03T01:50:51.720Z,6243
2022-08-03T01:52:51.927Z,6315
2022-08-03T01:53:51.769Z,4377
2022-08-03T01:54:51.713Z,6261
2022-08-03T01:55:51.738Z,6719
2022-08-03T01:58:05.095Z,5292
2022-08-03T01:58:51.769Z,5307
2022-08-03T01:59:51.716Z,5242
2022-08-03T02:00:51.808Z,6597
2022-08-03T02:02:51.988Z,6543
2022-08-03T02:03:59.643Z,6297
2022-08-03T02:04:51.718Z,6297
2022-08-03T02:06:06.076Z,4775
2022-08-03T02:07:51.902Z,4884
2022-08-03T02:08:51.729Z,5598
2022-08-03T02:09:51.786Z,5157
2022-08-03T02:10:51.782Z,5242
2022-08-03T02:12:51.920Z,6693
2022-08-03T02:13:51.775Z,5242
2022-08-03T02:14:51.791Z,6479
2022-08-03T02:15:51.736Z,5272
2022-08-03T02:17:51.923Z,6574
2022-08-03T02:18:51.782Z,4419
2022-08-03T02:19:51.794Z,6522
2022-08-03T02:20:51.721Z,6315
2022-08-03T02:22:51.913Z,6661
2022-08-03T02:23:51.724Z,6261
2022-08-03T02:24:51.730Z,6261
2022-08-03T02:25:51.753Z,6315
2022-08-03T02:27:51.924Z,4992
2022-08-03T02:28:51.744Z,4916
2022-08-03T02:29:51.731Z,6261
2022-08-03T02:30:53.850Z,5968
2022-08-03T02:32:51.915Z,4954
2022-08-03T02:33:51.792Z,4897
2022-08-03T02:34:51.803Z,6014
2022-08-03T02:35:51.791Z,4831
2022-08-03T02:37:51.929Z,4864
2022-08-03T02:38:51.811Z,4945
2022-08-03T02:39:51.795Z,6213
2022-08-03T02:40:51.737Z,6165
2022-08-03T02:42:51.942Z,4671
2022-08-03T02:44:05.770Z,4916
2022-08-03T02:44:51.765Z,4609
2022-08-03T02:45:51.821Z,4916
2022-08-03T02:47:53.694Z,4174
2022-08-03T02:48:51.796Z,6641
2022-08-03T02:49:52.253Z,6479
2022-08-03T02:50:51.735Z,6315
2022-08-03T02:52:51.934Z,5106
2022-08-03T02:53:51.737Z,6417
2022-08-03T02:54:51.802Z,4784
2022-08-03T02:55:51.808Z,4565
2022-08-03T02:57:51.952Z,6273
2022-08-03T02:58:51.802Z,4831
2022-08-03T02:59:51.798Z,4992
2022-08-03T03:00:51.797Z,4916
2022-08-03T03:02:51.942Z,6147
2022-08-03T03:03:51.758Z,6027
2022-08-03T03:04:55.045Z,6177
2022-08-03T03:05:56.982Z,6027
2022-08-03T03:07:52.884Z,4864
2022-08-03T03:08:53.078Z,6479
2022-08-03T03:09:51.745Z,5729
2022-08-03T03:10:53.161Z,4992
2022-08-03T03:12:51.929Z,6297
2022-08-03T03:13:51.809Z,4631
2022-08-03T03:14:51.744Z,4661
2022-08-03T03:15:51.752Z,4775
2022-08-03T03:17:51.929Z,5968
2022-08-03T03:18:51.810Z,6027
2022-08-03T03:19:51.830Z,6064
2022-08-03T03:20:51.810Z,4793
2022-08-03T03:22:51.954Z,4822
2022-08-03T03:23:51.778Z,6195
2022-08-03T03:24:51.772Z,5141
2022-08-03T03:25:51.755Z,5980
2022-08-03T03:27:51.999Z,5980
2022-08-03T03:28:51.758Z,6116
2022-08-03T03:29:51.790Z,4897
2022-08-03T03:30:52.531Z,6027
2022-08-03T03:32:52.618Z,5980
2022-08-03T03:33:51.753Z,6100
2022-08-03T03:34:51.833Z,5106
2022-08-03T03:35:51.852Z,4793
2022-08-03T03:37:51.969Z,6100
2022-08-03T03:38:51.760Z,6297
2022-08-03T03:39:51.822Z,6038
2022-08-03T03:40:51.790Z,6134
2022-08-03T03:42:52.000Z,6165
2022-08-03T03:43:51.757Z,6123
2022-08-03T03:44:51.793Z,6225
2022-08-03T03:45:51.776Z,5016
2022-08-03T03:47:51.951Z,5242
2022-08-03T03:48:51.797Z,4864
2022-08-03T03:49:51.817Z,5929
2022-08-03T03:50:51.828Z,4793
2022-08-03T03:52:51.940Z,4831
2022-08-03T03:53:51.766Z,5856
2022-08-03T03:54:51.783Z,6100
2022-08-03T03:55:57.618Z,6014
2022-08-03T03:57:51.975Z,4282
2022-08-03T03:58:51.832Z,5907
2022-08-03T03:59:51.768Z,5986
2022-08-03T04:00:51.813Z,5907
2022-08-03T04:02:51.946Z,5952
2022-08-03T04:03:51.773Z,4343
2022-08-03T04:04:51.783Z,4831
2022-08-03T04:05:51.793Z,4864
2022-08-03T04:07:51.967Z,4716
2022-08-03T04:08:51.775Z,6123
2022-08-03T04:09:51.811Z,6048
2022-08-03T04:10:51.820Z,6123
2022-08-03T04:12:51.954Z,4874
2022-08-03T04:13:51.796Z,4661
2022-08-03T04:14:51.806Z,4738
2022-08-03T04:15:51.784Z,4661
2022-08-03T04:17:51.982Z,4661
2022-08-03T04:18:51.774Z,5751
2022-08-03T04:19:51.804Z,4060
2022-08-03T04:20:51.813Z,4748
2022-08-03T04:22:52.003Z,5895
2022-08-03T04:23:51.807Z,5739
2022-08-03T04:24:51.786Z,4427
2022-08-03T04:25:51.843Z,4448
2022-08-03T04:28:08.276Z,4406
2022-08-03T04:28:51.787Z,4841
2022-08-03T04:29:51.846Z,4609
2022-08-03T04:30:51.781Z,4609
2022-08-03T04:32:51.983Z,5778
2022-08-03T04:33:51.808Z,6100
2022-08-03T04:34:51.810Z,4406
2022-08-03T04:35:54.723Z,6195
2022-08-03T04:37:51.998Z,6064
2022-08-03T04:38:51.879Z,4406
2022-08-03T04:39:51.859Z,5515
2022-08-03T04:40:51.833Z,5658
2022-08-03T04:42:51.965Z,4466
2022-08-03T04:43:51.851Z,4521
2022-08-03T04:44:51.862Z,5739
2022-08-03T04:45:51.854Z,4702
2022-08-03T04:47:51.972Z,4487
2022-08-03T04:48:51.791Z,5461
2022-08-03T04:49:51.859Z,5317
2022-08-03T04:50:51.793Z,4385
2022-08-03T04:52:51.984Z,4290
2022-08-03T04:53:51.795Z,4246
2022-08-03T04:54:51.837Z,4246
2022-08-03T04:55:51.857Z,4222
2022-08-03T04:57:52.008Z,5419
2022-08-03T04:58:51.812Z,3839
2022-08-03T04:59:51.862Z,5378
2022-08-03T05:00:51.874Z,4222
2022-08-03T05:02:51.982Z,5317
2022-08-03T05:03:51.801Z,5327
2022-08-03T05:04:51.867Z,4679
2022-08-03T05:05:51.801Z,4246
2022-08-03T05:07:52.023Z,4874
2022-08-03T05:08:51.826Z,5378
2022-08-03T05:09:52.544Z,5307
2022-08-03T05:10:51.847Z,4238
2022-08-03T05:12:52.014Z,5378
2022-08-03T05:13:51.811Z,3671
2022-08-03T05:14:51.817Z,5222
2022-08-03T05:15:51.867Z,5247
2022-08-03T05:17:51.986Z,4186
2022-08-03T05:18:51.873Z,5197
2022-08-03T05:19:51.834Z,5222
2022-08-03T05:20:51.810Z,4186
2022-08-03T05:22:52.017Z,5262
2022-08-03T05:23:51.880Z,5182
2022-08-03T05:24:51.826Z,4114
2022-08-03T05:25:51.843Z,5182
2022-08-03T05:27:52.013Z,4076
2022-08-03T05:28:51.811Z,3909
2022-08-03T05:29:51.876Z,4945
2022-08-03T05:30:51.817Z,3965
2022-08-03T05:32:52.022Z,3991
2022-08-03T05:33:51.887Z,3872
2022-08-03T05:34:51.849Z,3902
2022-08-03T05:35:56.293Z,4897
2022-08-03T05:37:54.616Z,3872
2022-08-03T05:38:51.885Z,4874
2022-08-03T05:39:51.818Z,4030
2022-08-03T05:40:57.119Z,4003
2022-08-03T05:42:52.035Z,5074
2022-08-03T05:43:51.887Z,3802
2022-08-03T05:44:51.824Z,4897
2022-08-03T05:46:11.512Z,3991
2022-08-03T05:47:52.042Z,5031
2022-08-03T05:48:51.881Z,3941
2022-08-03T05:49:51.831Z,3909
2022-08-03T05:50:51.834Z,3941
2022-08-03T05:52:52.020Z,3991
2022-08-03T05:53:51.841Z,4884
2022-08-03T05:54:55.659Z,3916
2022-08-03T05:55:54.810Z,4916
2022-08-03T05:57:52.003Z,4954
2022-08-03T05:58:51.868Z,3741
2022-08-03T05:59:53.778Z,4086
2022-08-03T06:00:51.831Z,4586
2022-08-03T06:02:52.064Z,3519
2022-08-03T06:03:51.901Z,3394
2022-08-03T06:04:51.857Z,4238
2022-08-03T06:05:55.527Z,4134
2022-08-03T06:07:52.032Z,3681
2022-08-03T06:08:51.848Z,4377
2022-08-03T06:10:34.620Z,3420
2022-08-03T06:10:51.855Z,4266
2022-08-03T06:12:52.013Z,4377
2022-08-03T06:13:51.838Z,4360
2022-08-03T06:14:51.904Z,3188
2022-08-03T06:15:51.839Z,4302
2022-08-03T06:17:52.034Z,4166
2022-08-03T06:18:51.845Z,3161
2022-08-03T06:19:51.851Z,3293
2022-08-03T06:20:52.266Z,3188
2022-08-03T06:23:00.066Z,3926
2022-08-03T06:23:53.688Z,3909
2022-08-03T06:24:53.619Z,3817
2022-08-03T06:25:51.843Z,3972
2022-08-03T06:27:52.045Z,3327
2022-08-03T06:28:53.867Z,3864
2022-08-03T06:29:51.857Z,3846
2022-08-03T06:30:51.883Z,3030
2022-08-03T06:32:52.498Z,2998
2022-08-03T06:34:30.272Z,3894
2022-08-03T06:34:51.880Z,3926
2022-08-03T06:35:51.875Z,3116
2022-08-03T06:37:52.053Z,3042
2022-08-03T06:38:51.878Z,2603
2022-08-03T06:39:51.917Z,3607
2022-08-03T06:40:51.854Z,3632
2022-08-03T06:42:52.054Z,3553
2022-08-03T06:44:02.851Z,3632
2022-08-03T06:44:51.947Z,2830
2022-08-03T06:45:51.854Z,2762
2022-08-03T06:47:52.045Z,2681
2022-08-03T06:48:52.100Z,3314
2022-08-03T06:50:05.046Z,3293
2022-08-03T06:50:51.865Z,3209
2022-08-03T06:52:52.037Z,2537
2022-08-03T06:53:51.862Z,3030
2022-08-03T06:54:51.870Z,3167
2022-08-03T06:55:54.337Z,2749
2022-08-03T06:57:52.043Z,2982
2022-08-03T06:58:51.888Z,2359
2022-08-03T07:00:07.099Z,2320
2022-08-03T07:00:51.862Z,2287
2022-08-03T07:02:54.860Z,2939
2022-08-03T07:03:52.440Z,2939
2022-08-03T07:04:51.933Z,2305
2022-08-03T07:05:51.869Z,2128
2022-08-03T07:07:52.058Z,2676
2022-08-03T07:08:52.990Z,2858
2022-08-03T07:09:55.809Z,2261
2022-08-03T07:10:51.871Z,2799
2022-08-03T07:12:52.928Z,2189
2022-08-03T07:13:51.896Z,2749
2022-08-03T07:14:52.587Z,2702
2022-08-03T07:15:54.737Z,2722
2022-08-03T07:17:52.074Z,1912
2022-08-03T07:18:51.878Z,2128
2022-08-03T07:19:51.967Z,2118
2022-08-03T07:20:51.939Z,2108
2022-08-03T07:22:52.069Z,2663
2022-08-03T07:23:51.939Z,1779
2022-08-03T07:24:51.954Z,1974
2022-08-03T07:25:51.950Z,2502
2022-08-03T07:27:52.091Z,1962
2022-08-03T07:28:51.945Z,2669
2022-08-03T07:29:51.888Z,2088
2022-08-03T07:30:51.977Z,2739
2022-08-03T07:32:52.087Z,2021
2022-08-03T07:33:51.885Z,2468
2022-08-03T07:34:53.087Z,1950
2022-08-03T07:35:51.918Z,1935
2022-08-03T07:37:53.056Z,1919
2022-08-03T07:38:51.901Z,2454
2022-08-03T07:39:51.891Z,2283
2022-08-03T07:40:51.899Z,2454
2022-08-03T07:42:53.228Z,1845
2022-08-03T07:43:51.891Z,2421
2022-08-03T07:44:51.916Z,1891
2022-08-03T07:45:51.957Z,2180
2022-08-03T07:47:53.105Z,2363
2022-08-03T07:48:52.064Z,1978
2022-08-03T07:49:51.923Z,1824
2022-08-03T07:50:51.896Z,1766
2022-08-03T07:52:52.093Z,2172
2022-08-03T07:53:52.402Z,2068
2022-08-03T07:54:51.958Z,2084
2022-08-03T07:55:51.897Z,1974
2022-08-03T07:57:52.094Z,2009
2022-08-03T07:58:51.961Z,2037
2022-08-03T07:59:57.033Z,1588
2022-08-03T08:00:51.937Z,2084
2022-08-03T08:02:52.075Z,1994
2022-08-03T08:03:53.168Z,1287
2022-08-03T08:04:51.906Z,1594
2022-08-03T08:05:51.932Z,1870
2022-08-03T08:07:52.098Z,1813
2022-08-03T08:08:51.904Z,1716
2022-08-03T08:09:51.971Z,1745
2022-08-03T08:10:56.636Z,1566
2022-08-03T08:12:52.097Z,1353
2022-08-03T08:13:51.933Z,1465
2022-08-03T08:14:51.968Z,1470
2022-08-03T08:15:51.930Z,1443
2022-08-03T08:17:52.126Z,1491
2022-08-03T08:18:51.933Z,1802
2022-08-03T08:19:53.241Z,1420
2022-08-03T08:20:51.940Z,1802
2022-08-03T08:22:52.122Z,1853
2022-08-03T08:23:57.104Z,1706
2022-08-03T08:24:51.918Z,1353
2022-08-03T08:25:51.937Z,1353
2022-08-03T08:28:21.761Z,1762
2022-08-03T08:28:51.915Z,1732
2022-08-03T08:29:53.160Z,1361
2022-08-03T08:30:51.937Z,1745
2022-08-03T08:32:52.125Z,1340
2022-08-03T08:34:04.500Z,1702
2022-08-03T08:34:52.007Z,1682
2022-08-03T08:35:51.949Z,1682
2022-08-03T08:37:52.125Z,1315
2022-08-03T08:38:51.984Z,1351
2022-08-03T08:39:52.015Z,1706
2022-08-03T08:40:51.947Z,1682
2022-08-03T08:42:58.238Z,1220
2022-08-03T08:43:51.957Z,1622
2022-08-03T08:44:51.952Z,1629
2022-08-03T08:45:51.952Z,1642
2022-08-03T08:47:53.255Z,1305
2022-08-03T08:48:52.008Z,1232
2022-08-03T08:50:08.744Z,1204
2022-08-03T08:50:51.938Z,1533
2022-08-03T08:52:52.128Z,1180
2022-08-03T08:53:51.956Z,1423
2022-08-03T08:54:51.973Z,1437
2022-08-03T08:55:58.142Z,1429
2022-08-03T08:57:52.120Z,1499
2022-08-03T08:58:51.954Z,1144
2022-08-03T08:59:54.575Z,1138
2022-08-03T09:00:51.992Z,1173
2022-08-03T09:02:52.140Z,1485
2022-08-03T09:03:51.969Z,1369
2022-08-03T09:04:51.935Z,1415
2022-08-03T09:05:55.612Z,1437
2022-08-03T09:07:52.147Z,1144
2022-08-03T09:08:52.037Z,1662
2022-08-03T09:10:04.746Z,1308
2022-08-03T09:10:52.005Z,1669
2022-08-03T09:12:52.153Z,1476
2022-08-03T09:13:51.967Z,1728
2022-08-03T09:15:07.785Z,1728
2022-08-03T09:15:57.227Z,1756
2022-08-03T09:17:52.142Z,1235
2022-08-03T09:18:52.009Z,1171
2022-08-03T09:20:03.367Z,1124
2022-08-03T09:20:51.972Z,1420
2022-08-03T09:22:52.117Z,1375
2022-08-03T09:25:03.255Z,1359
2022-08-03T09:25:52.009Z,1356
2022-08-03T09:27:52.135Z,1001
2022-08-03T09:28:52.655Z,1036
2022-08-03T09:29:51.971Z,1285
2022-08-03T09:30:51.967Z,1153
2022-08-03T09:32:52.126Z,1295
2022-08-03T09:33:51.950Z,1027
2022-08-03T09:34:55.299Z,1036
2022-08-03T09:35:53.865Z,1013
2022-08-03T09:38:11.963Z,988
2022-08-03T09:38:52.044Z,1199
2022-08-03T09:39:51.985Z,899
2022-08-03T09:40:54.801Z,887
2022-08-03T09:42:52.162Z,1084
2022-08-03T09:43:51.959Z,1162
2022-08-03T09:44:52.048Z,1138
2022-08-03T09:45:52.022Z,1162
2022-08-03T09:47:52.156Z,996
2022-08-03T09:48:52.028Z,908
2022-08-03T09:49:52.028Z,927
2022-08-03T09:50:56.757Z,1197
2022-08-03T09:52:52.959Z,1235
2022-08-03T09:53:57.321Z,970
2022-08-03T09:54:51.997Z,1310
2022-08-03T09:56:31.014Z,1042
2022-08-03T09:57:52.166Z,1390
2022-08-03T09:58:52.039Z,1384
2022-08-03T09:59:54.940Z,1305
2022-08-03T10:00:52.082Z,1310
2022-08-03T10:02:52.183Z,1375
2022-08-03T10:04:03.710Z,1189
2022-08-03T10:04:51.981Z,1235
2022-08-03T10:05:54.930Z,1275
2022-08-03T10:07:52.158Z,1899
2022-08-03T10:08:51.975Z,1712
2022-08-03T10:09:51.980Z,1945
2022-08-03T10:10:52.042Z,1919
2022-08-03T10:12:52.183Z,2156
2022-08-03T10:13:52.041Z,1496
2022-08-03T10:14:52.048Z,1549
2022-08-03T10:16:21.096Z,1941
2022-08-03T10:17:52.202Z,1476
2022-08-03T10:18:52.043Z,1806
2022-08-03T10:19:51.995Z,2302
2022-08-03T10:20:51.978Z,2259
2022-08-03T10:22:52.189Z,2152
2022-08-03T10:23:51.991Z,1740
2022-08-03T10:24:52.049Z,1666
2022-08-03T10:25:51.993Z,1555
2022-08-03T10:27:52.160Z,1384
2022-08-03T10:28:52.036Z,1629
2022-08-03T10:29:52.045Z,1192
2022-08-03T10:30:52.000Z,1453
2022-08-03T10:32:52.182Z,977
2022-08-03T10:33:52.993Z,1034
2022-08-03T10:34:52.059Z,990
2022-08-03T10:35:51.991Z,1180
2022-08-03T10:37:56.615Z,1080
2022-08-03T10:38:52.016Z,1060
2022-08-03T10:39:52.086Z,919
2022-08-03T10:40:54.630Z,990
2022-08-03T10:42:52.194Z,957
2022-08-03T10:43:51.995Z,930
2022-08-03T10:44:52.008Z,802
2022-08-03T10:45:52.001Z,791
2022-08-03T10:47:52.197Z,665
2022-08-03T10:48:51.998Z,614
2022-08-03T10:49:52.058Z,788
2022-08-03T10:50:52.058Z,777
2022-08-03T10:52:52.181Z,600
2022-08-03T10:53:55.145Z,547
2022-08-03T10:54:52.004Z,627
2022-08-03T10:55:52.008Z,701
2022-08-03T10:57:52.439Z,740
2022-08-03T10:58:53.544Z,696
2022-08-03T10:59:52.007Z,838
2022-08-03T11:00:52.077Z,800
2022-08-03T11:02:52.210Z,717
2022-08-03T11:03:52.060Z,881
2022-08-03T11:04:52.067Z,664
2022-08-03T11:05:52.016Z,808
2022-08-03T11:07:53.094Z,857
2022-08-03T11:08:52.075Z,675
2022-08-03T11:09:52.084Z,864
2022-08-03T11:10:52.028Z,885
2022-08-03T11:12:52.210Z,913
2022-08-03T11:13:52.014Z,737
2022-08-03T11:14:52.065Z,954
2022-08-03T11:15:52.075Z,867
2022-08-03T11:17:55.614Z,1027
2022-08-03T11:18:52.016Z,1059
2022-08-03T11:19:57.209Z,829
2022-08-03T11:20:52.021Z,1104
2022-08-03T11:22:52.243Z,899
2022-08-03T11:24:02.236Z,1165
2022-08-03T11:24:52.083Z,1044
2022-08-03T11:25:54.487Z,1187
2022-08-03T11:27:52.283Z,950
2022-08-03T11:28:52.051Z,1171
2022-08-03T11:29:52.015Z,927
2022-08-03T11:30:52.044Z,934
2022-08-03T11:32:52.233Z,1216
2022-08-03T11:33:52.085Z,961
2022-08-03T11:34:52.026Z,1292
2022-08-03T11:35:52.027Z,1264
2022-08-03T11:38:01.726Z,1415
2022-08-03T11:38:52.058Z,924
2022-08-03T11:39:52.067Z,852
2022-08-03T11:40:52.055Z,1272
2022-08-03T11:42:52.215Z,1437
2022-08-03T11:43:52.030Z,1769
2022-08-03T11:44:52.039Z,1899
2022-08-03T11:45:52.064Z,2014
2022-08-03T11:47:52.235Z,1974
2022-08-03T11:48:52.033Z,1966
2022-08-03T11:49:52.056Z,2124
2022-08-03T11:50:52.056Z,3080
2022-08-03T11:52:52.242Z,3420
2022-08-03T11:53:52.035Z,3717
2022-08-03T11:54:56.373Z,3934
2022-08-03T11:55:52.051Z,3839
2022-08-03T11:58:57.620Z,3825
2022-08-03T11:58:57.672Z,3508
2022-08-03T11:59:52.102Z,5338
2022-08-03T12:00:52.065Z,4775
2022-08-03T12:02:52.249Z,4142
2022-08-03T12:03:52.057Z,4266
2022-08-03T12:04:52.074Z,5550
2022-08-03T12:05:52.510Z,5504
2022-08-03T12:08:02.864Z,5262
2022-08-03T12:08:52.049Z,5207
2022-08-03T12:09:52.056Z,4954
2022-08-03T12:10:52.046Z,4756
2022-08-03T12:12:52.251Z,3049
2022-08-03T12:13:57.217Z,2739
2022-08-03T12:14:52.392Z,2548
2022-08-03T12:15:52.054Z,2172
2022-08-03T12:17:54.808Z,2610
2022-08-03T12:18:52.150Z,2563
2022-08-03T12:19:52.123Z,2359
2022-08-03T12:20:52.115Z,1622
2022-08-03T12:22:52.241Z,1835
2022-08-03T12:23:52.051Z,1698
2022-08-03T12:24:52.062Z,1592
2022-08-03T12:25:52.077Z,1542
2022-08-03T12:27:52.279Z,1609
2022-08-03T12:28:52.128Z,1562
2022-08-03T12:29:57.124Z,1653
2022-08-03T12:30:52.063Z,1584
2022-08-03T12:32:52.259Z,2058
2022-08-03T12:33:52.153Z,2029
2022-08-03T12:34:52.122Z,2253
2022-08-03T12:35:52.655Z,2443
2022-08-03T12:37:52.265Z,2768
2022-08-03T12:38:52.063Z,2867
2022-08-03T12:40:00.774Z,3042
2022-08-03T12:40:52.107Z,3299
2022-08-03T12:42:52.286Z,3872
2022-08-03T12:43:52.063Z,4186
2022-08-03T12:44:54.600Z,4586
2022-08-03T12:45:52.077Z,4661
2022-08-03T12:47:52.334Z,3652
2022-08-03T12:48:52.144Z,4238
2022-08-03T12:49:52.073Z,5767
2022-08-03T12:50:53.745Z,4352
2022-08-03T12:52:52.246Z,5696
2022-08-03T12:53:52.103Z,5615
2022-08-03T12:54:52.115Z,3926
2022-08-03T12:55:57.967Z,3802
2022-08-03T12:57:52.258Z,4539
2022-08-03T12:58:52.099Z,4716
2022-08-03T12:59:52.942Z,4448
2022-08-03T13:00:52.110Z,4166
2022-08-03T13:03:00.582Z,3562
2022-08-03T13:03:52.807Z,2214
2022-08-03T13:04:52.092Z,2305
2022-08-03T13:05:52.105Z,2146
2022-08-03T13:07:52.324Z,2438
2022-08-03T13:08:52.082Z,2270
2022-08-03T13:09:52.078Z,2094
2022-08-03T13:10:52.096Z,1958
2022-08-03T13:12:52.276Z,1261
2022-08-03T13:13:52.153Z,1570
2022-08-03T13:14:52.155Z,1462
2022-08-03T13:15:52.115Z,1390
2022-08-03T13:17:52.263Z,1165
2022-08-03T13:18:52.110Z,959
2022-08-03T13:19:52.094Z,1228
2022-08-03T13:20:52.106Z,1287
2022-08-03T13:22:52.302Z,1488
2022-08-03T13:23:52.092Z,1622
2022-08-03T13:24:52.119Z,1696
2022-08-03T13:25:55.038Z,1782
2022-08-03T13:28:02.820Z,1491
2022-08-03T13:28:52.124Z,1396
2022-08-03T13:29:52.128Z,1456
2022-08-03T13:30:52.098Z,2025
2022-08-03T13:32:52.295Z,1502
2022-08-03T13:33:52.141Z,2681
2022-08-03T13:34:52.148Z,2598
2022-08-03T13:35:52.132Z,2142
2022-08-03T13:37:52.354Z,3004
2022-08-03T13:38:52.108Z,2959
2022-08-03T13:39:58.632Z,2193
2022-08-03T13:40:52.122Z,3191
2022-08-03T13:42:52.328Z,2706
2022-08-03T13:44:06.792Z,3042
2022-08-03T13:44:52.105Z,4565
2022-08-03T13:45:54.974Z,3526
2022-08-03T13:47:52.305Z,4762
2022-08-03T13:48:52.132Z,3741
2022-08-03T13:49:54.513Z,5378
2022-08-03T13:50:52.132Z,5652
2022-08-03T13:52:52.305Z,6399
2022-08-03T13:53:52.157Z,6719
2022-08-03T13:54:52.126Z,7038
2022-08-03T13:55:52.138Z,7341
2022-08-03T13:58:05.599Z,5855
2022-08-03T13:58:52.107Z,7985
2022-08-03T13:59:52.157Z,7229
2022-08-03T14:00:52.177Z,7992
2022-08-03T14:02:52.313Z,5810
2022-08-03T14:03:52.113Z,7806
2022-08-03T14:04:52.120Z,5815
2022-08-03T14:05:52.108Z,7984
2022-08-03T14:07:52.315Z,7798
2022-08-03T14:08:52.146Z,5810
2022-08-03T14:09:52.115Z,7730
2022-08-03T14:10:52.121Z,7813
2022-08-03T14:12:52.316Z,5997
2022-08-03T14:13:52.166Z,7708
2022-08-03T14:14:52.146Z,6027
2022-08-03T14:15:52.146Z,7813
2022-08-03T14:17:52.316Z,7876
2022-08-03T14:18:52.119Z,5494
2022-08-03T14:19:52.819Z,7355
2022-08-03T14:20:56.141Z,5494
2022-08-03T14:22:52.329Z,5658
2022-08-03T14:23:52.127Z,7597
2022-08-03T14:24:52.131Z,7426
2022-08-03T14:25:52.891Z,6575
2022-08-03T14:27:52.325Z,6699
2022-08-03T14:28:52.149Z,5483
2022-08-03T14:29:52.121Z,6609
2022-08-03T14:30:52.130Z,6356
2022-08-03T14:32:52.336Z,5718
2022-08-03T14:33:52.161Z,5826
2022-08-03T14:34:52.165Z,5212
2022-08-03T14:35:52.137Z,5212
2022-08-03T14:37:52.328Z,3466
2022-08-03T14:38:52.154Z,3331
2022-08-03T14:40:00.150Z,3086
2022-08-03T14:40:52.162Z,3518
2022-08-03T14:42:52.315Z,2205
2022-08-03T14:44:00.758Z,1996
2022-08-03T14:44:52.163Z,2035
2022-08-03T14:45:52.205Z,1670
2022-08-03T14:49:02.955Z,1038
2022-08-03T14:50:10.258Z,1152
2022-08-03T14:50:29.963Z,1256
2022-08-03T14:50:52.292Z,918
2022-08-03T14:52:52.313Z,951
2022-08-03T14:53:52.141Z,709
2022-08-03T14:54:52.163Z,791
2022-08-03T14:55:52.183Z,771
2022-08-03T14:57:52.321Z,565
2022-08-03T14:58:52.175Z,667
2022-08-03T14:59:54.041Z,530
2022-08-03T15:00:52.159Z,637
2022-08-03T15:02:52.399Z,607
2022-08-03T15:03:52.145Z,598
2022-08-03T15:04:52.154Z,614
2022-08-03T15:05:52.177Z,518
2022-08-03T15:07:52.360Z,545
2022-08-03T15:09:21.067Z,503
2022-08-03T15:09:52.146Z,642
2022-08-03T15:10:52.167Z,656
2022-08-03T15:12:52.339Z,700
2022-08-03T15:13:52.149Z,690
2022-08-03T15:14:52.205Z,711
2022-08-03T15:15:52.220Z,731
2022-08-03T15:17:59.676Z,765
2022-08-03T15:18:52.163Z,719
2022-08-03T15:19:59.771Z,531
2022-08-03T15:20:52.158Z,767
2022-08-03T15:22:52.357Z,797
2022-08-03T15:23:52.208Z,806
2022-08-03T15:24:52.187Z,867
2022-08-03T15:26:02.779Z,882
2022-08-03T15:28:02.626Z,916
2022-08-03T15:28:52.164Z,690
2022-08-03T15:30:04.703Z,707
2022-08-03T15:30:52.190Z,728
2022-08-03T15:32:52.425Z,986
2022-08-03T15:33:52.193Z,933
2022-08-03T15:34:52.164Z,980
2022-08-03T15:35:52.174Z,834
2022-08-03T15:37:52.343Z,1165
2022-08-03T15:38:52.192Z,1401
2022-08-03T15:39:58.700Z,1518
2022-08-03T15:40:52.184Z,1630
2022-08-03T15:42:52.372Z,1802
2022-08-03T15:43:52.239Z,1638
2022-08-03T15:44:52.166Z,1791
2022-08-03T15:46:12.551Z,1863
2022-08-03T15:47:52.352Z,2094
2022-08-03T15:48:52.233Z,1789
2022-08-03T15:49:52.243Z,1477
2022-08-03T15:50:52.175Z,1899
2022-08-03T15:52:52.355Z,1959
2022-08-03T15:53:52.198Z,2072
2022-08-03T15:54:52.203Z,2116
2022-08-03T15:55:52.201Z,2172
2022-08-03T15:58:58.968Z,2090
2022-08-03T15:58:59.184Z,2305
2022-08-03T15:59:52.200Z,1924
2022-08-03T16:00:52.212Z,2483
2022-08-03T16:02:55.583Z,2001
2022-08-03T16:03:52.194Z,1924
2022-08-03T16:04:52.190Z,2040
2022-08-03T16:05:52.205Z,2654
2022-08-03T16:08:03.298Z,2150
2022-08-03T16:08:52.209Z,2780
2022-08-03T16:09:52.212Z,2828
2022-08-03T16:10:52.182Z,2844
2022-08-03T16:12:52.356Z,2844
2022-08-03T16:14:05.064Z,3023
2022-08-03T16:14:53.117Z,2996
2022-08-03T16:15:52.251Z,2996
2022-08-03T16:17:52.366Z,2913
2022-08-03T16:18:52.215Z,2858
2022-08-03T16:19:54.789Z,2799
2022-08-03T16:20:52.231Z,2772
2022-08-03T16:22:52.382Z,2062
2022-08-03T16:23:52.241Z,2128
2022-08-03T16:24:52.263Z,2645
2022-08-03T16:25:52.229Z,2058
2022-08-03T16:28:00.586Z,2520
2022-08-03T16:28:52.196Z,2772
2022-08-03T16:29:52.221Z,2136
2022-08-03T16:30:52.225Z,2062
2022-08-03T16:32:52.402Z,2520
2022-08-03T16:33:52.200Z,2332
2022-08-03T16:34:52.193Z,2214
2022-08-03T16:35:52.216Z,2116
2022-08-03T16:37:56.317Z,1857
2022-08-03T16:38:52.288Z,1545
2022-08-03T16:39:52.207Z,1815
2022-08-03T16:40:52.389Z,1815
2022-08-03T16:42:52.393Z,1698
2022-08-03T16:43:52.222Z,1825